createdAt,value
2023-01-02T00:04:00.088Z,12.40
2023-01-02T00:08:03.089Z,12.50
2023-01-02T00:12:06.013Z,12.50
2023-01-02T00:16:09.369Z,12.50
2023-01-02T00:20:13.683Z,12.50
2023-01-02T00:24:16.481Z,12.50
2023-01-02T00:28:19.519Z,12.50
2023-01-02T00:32:22.325Z,12.50
2023-01-02T00:36:27.796Z,12.50
2023-01-02T00:40:30.604Z,12.50
2023-01-02T00:44:33.401Z,12.60
2023-01-02T00:48:36.208Z,12.60
2023-01-02T00:52:40.536Z,12.60
2023-01-02T00:56:43.318Z,12.60
2023-01-02T01:00:46.247Z,12.60
2023-01-02T01:04:49.146Z,12.60
2023-01-02T01:08:53.291Z,12.60
2023-01-02T01:12:56.114Z,12.60
2023-01-02T01:16:58.902Z,12.60
2023-01-02T01:21:06.484Z,12.60
2023-01-02T01:25:11.061Z,12.60
2023-01-02T01:29:13.894Z,12.70
2023-01-02T01:33:16.684Z,12.70
2023-01-02T01:37:19.462Z,12.70
2023-01-02T01:41:25.776Z,12.70
2023-01-02T01:45:28.680Z,12.70
2023-01-02T01:49:31.802Z,12.70
2023-01-02T01:53:35.047Z,12.70
2023-01-02T01:57:42.231Z,12.70
2023-01-02T02:01:45.473Z,12.70
2023-01-02T02:05:48.758Z,12.80
2023-01-02T02:09:53.218Z,12.80
2023-01-02T02:13:59.485Z,12.80
2023-01-02T02:18:06.156Z,12.80
2023-01-02T02:22:20.642Z,12.80
2023-01-02T02:26:42.573Z,12.90
2023-01-02T02:30:49.973Z,12.90
2023-01-02T02:34:57.464Z,12.90
2023-01-02T02:39:05.376Z,12.90
2023-01-02T02:43:11.274Z,12.90
2023-01-02T02:47:19.435Z,12.90
2023-01-02T02:51:25.607Z,12.90
2023-01-02T02:55:32.183Z,13.00
2023-01-02T02:59:35.614Z,13.00
2023-01-02T03:03:39.774Z,13.10
2023-01-02T03:07:47.108Z,13.10
2023-01-02T03:11:55.228Z,13.20
2023-01-02T03:16:01.754Z,13.30
2023-01-02T03:20:07.753Z,13.50
2023-01-02T03:24:12.161Z,13.50
2023-01-02T03:28:17.213Z,13.70
2023-01-02T03:32:23.889Z,13.80
2023-01-02T03:36:30.155Z,13.80
2023-01-02T03:40:36.231Z,13.90
2023-01-02T03:44:41.427Z,13.90
2023-01-02T03:48:46.336Z,13.90
2023-01-02T03:52:50.478Z,13.90
2023-01-02T03:56:56.663Z,13.90
2023-01-02T04:01:05.533Z,13.90
2023-01-02T04:05:11.072Z,13.90
2023-01-02T04:09:16.747Z,13.90
2023-01-02T04:13:22.520Z,13.80
2023-01-02T04:17:26.353Z,13.80
2023-01-02T04:21:31.936Z,13.80
2023-01-02T04:25:39.468Z,13.80
2023-01-02T04:29:42.376Z,13.80
2023-01-02T04:33:46.966Z,13.80
2023-01-02T04:37:49.774Z,13.80
2023-01-02T04:41:53.951Z,13.80
2023-01-02T04:45:56.906Z,13.80
2023-01-02T04:49:59.707Z,13.80
2023-01-02T04:54:02.509Z,13.80
2023-01-02T04:58:06.976Z,13.80
2023-01-02T05:02:09.922Z,13.80
2023-01-02T05:06:12.974Z,13.90
2023-01-02T05:10:15.788Z,13.90
2023-01-02T05:14:19.946Z,13.90
2023-01-02T05:18:22.827Z,13.90
2023-01-02T05:22:43.223Z,13.90
2023-01-02T05:26:46.037Z,13.90
2023-01-02T05:30:50.361Z,13.90
2023-01-02T05:34:53.253Z,14.00
2023-01-02T05:38:56.141Z,14.00
2023-01-02T05:42:59.331Z,14.00
2023-01-02T05:47:03.501Z,14.00
2023-01-02T05:51:07.247Z,14.00
2023-01-02T05:55:10.282Z,14.00
2023-01-02T05:59:14.636Z,13.90
2023-01-02T06:03:18.870Z,13.90
2023-01-02T06:07:21.754Z,13.90
2023-01-02T06:11:24.559Z,13.90
2023-01-02T06:15:27.348Z,13.90
2023-01-02T06:19:31.494Z,13.80
2023-01-02T06:23:34.538Z,13.80
2023-01-02T06:27:37.320Z,13.80
2023-01-02T06:31:41.123Z,13.70
2023-01-02T06:35:46.712Z,13.70
2023-01-02T06:39:49.521Z,13.60
2023-01-02T06:43:52.822Z,13.60
2023-01-02T06:47:57.321Z,13.60
2023-01-02T06:52:01.541Z,13.50
2023-01-02T06:56:05.023Z,13.50
2023-01-02T07:00:08.577Z,13.50
2023-01-02T07:04:15.272Z,13.50
2023-01-02T07:08:19.404Z,13.60
2023-01-02T07:12:22.198Z,13.60
2023-01-02T07:16:25.550Z,13.60
2023-01-02T07:20:28.602Z,13.70
2023-01-02T07:24:32.795Z,13.70
2023-01-02T07:28:35.995Z,13.70
2023-01-02T07:32:38.902Z,13.70
2023-01-02T07:36:41.696Z,13.80
2023-01-02T07:40:45.859Z,13.80
2023-01-02T07:44:48.689Z,13.80
2023-01-02T07:48:51.510Z,13.80
2023-01-02T07:52:54.352Z,13.80
2023-01-02T07:56:58.515Z,13.90
2023-01-02T08:01:06.607Z,13.90
2023-01-02T08:05:09.569Z,13.90
2023-01-02T08:09:12.342Z,13.90
2023-01-02T08:13:16.499Z,13.90
2023-01-02T08:17:19.353Z,13.90
2023-01-02T08:21:22.451Z,14.00
2023-01-02T08:25:25.245Z,14.00
2023-01-02T08:29:29.429Z,14.00
2023-01-02T08:33:32.239Z,14.00
2023-01-02T08:37:35.129Z,14.00
2023-01-02T08:41:38.864Z,14.00
2023-01-02T08:45:43.019Z,14.00
2023-01-02T08:49:45.899Z,14.00
2023-01-02T08:53:48.693Z,14.00
2023-01-02T08:57:51.548Z,14.00
2023-01-02T09:01:55.952Z,14.10
2023-01-02T09:05:58.826Z,14.10
2023-01-02T09:10:01.664Z,14.10
2023-01-02T09:14:05.261Z,14.10
2023-01-02T09:18:09.405Z,14.10
2023-01-02T09:22:12.457Z,14.10
2023-01-02T09:26:15.288Z,14.10
2023-01-02T09:30:18.070Z,14.10
2023-01-02T09:34:22.308Z,14.10
2023-01-02T09:38:25.171Z,14.10
2023-01-02T09:42:28.065Z,14.10
2023-01-02T09:46:34.537Z,14.10
2023-01-02T09:50:38.725Z,14.00
2023-01-02T09:54:41.521Z,14.00
2023-01-02T09:58:47.950Z,14.00
2023-01-02T10:03:02.823Z,14.00
2023-01-02T10:07:13.884Z,14.00
2023-01-02T10:11:31.578Z,14.00
2023-01-02T10:15:34.431Z,14.00
2023-01-02T10:19:42.424Z,14.00
2023-01-02T10:23:48.715Z,14.00
2023-01-02T10:27:53.882Z,13.90
2023-01-02T10:31:59.401Z,13.80
2023-01-02T10:36:02.586Z,13.70
2023-01-02T10:40:07.432Z,13.60
2023-01-02T10:44:13.833Z,13.50
2023-01-02T10:48:16.636Z,13.40
2023-01-02T10:52:23.297Z,13.30
2023-01-02T10:56:27.781Z,13.20
2023-01-02T11:00:32.313Z,13.20
2023-01-02T11:04:43.507Z,13.10
2023-01-02T11:08:55.771Z,13.10
2023-01-02T11:13:02.765Z,13.00
2023-01-02T11:17:06.830Z,13.00
2023-01-02T11:21:09.728Z,13.00
2023-01-02T11:25:19.237Z,13.00
2023-01-02T11:29:27.292Z,13.00
2023-01-02T11:33:31.477Z,12.90
2023-01-02T11:37:35.088Z,12.90
2023-01-02T11:42:08.523Z,12.90
2023-01-02T11:46:20.401Z,12.80
2023-01-02T11:50:25.033Z,12.70
2023-01-02T11:54:31.889Z,12.60
2023-01-02T11:58:37.811Z,12.50
2023-01-02T12:02:42.869Z,12.40
2023-01-02T12:06:51.466Z,12.30
2023-01-02T12:10:59.455Z,12.30
2023-01-02T12:15:12.577Z,12.20
2023-01-02T12:19:24.325Z,12.10
2023-01-02T12:23:43.509Z,12.10
2023-01-02T12:27:49.562Z,12.10
2023-01-02T12:32:06.031Z,12.00
2023-01-02T12:36:20.265Z,12.00
2023-01-02T12:40:31.816Z,11.90
2023-01-02T12:44:47.737Z,11.90
2023-01-02T12:48:56.711Z,11.90
2023-01-02T12:53:05.942Z,11.80
2023-01-02T12:57:15.739Z,11.80
2023-01-02T13:01:26.004Z,11.80
2023-01-02T13:05:33.033Z,11.80
2023-01-02T13:09:38.881Z,11.70
2023-01-02T13:13:41.744Z,11.70
2023-01-02T13:17:47.484Z,11.70
2023-01-02T13:21:52.794Z,11.60
2023-01-02T13:25:59.191Z,11.60
2023-01-02T13:30:02.643Z,11.60
2023-01-02T13:34:08.227Z,11.50
2023-01-02T13:38:13.587Z,11.50
2023-01-02T13:42:43.301Z,11.50
2023-01-02T13:47:03.324Z,11.40
2023-01-02T13:51:08.833Z,11.40
2023-01-02T13:55:31.577Z,11.40
2023-01-02T13:59:50.876Z,11.40
2023-01-02T14:04:21.184Z,11.40
2023-01-02T14:08:25.166Z,11.30
2023-01-02T14:12:28.071Z,11.30
2023-01-02T14:16:48.980Z,11.30
2023-01-02T14:20:54.624Z,11.20
2023-01-02T14:25:04.278Z,11.20
2023-01-02T14:29:10.405Z,11.20
2023-01-02T14:33:18.039Z,11.10
2023-01-02T14:42:23.663Z,11.10
2023-01-02T14:46:32.407Z,11.10
2023-01-02T14:50:37.689Z,11.00
2023-01-02T14:54:45.090Z,11.00
2023-01-02T14:58:52.494Z,11.00
2023-01-02T15:02:59.224Z,11.00
2023-01-02T15:07:10.631Z,11.00
2023-01-02T15:11:35.254Z,11.00
2023-01-02T15:15:40.198Z,10.90
2023-01-02T15:19:45.614Z,10.90
2023-01-02T15:23:50.371Z,10.90
2023-01-02T15:27:54.656Z,10.80
2023-01-02T15:31:58.453Z,10.80
2023-01-02T15:40:06.421Z,10.70
2023-01-02T15:44:27.505Z,10.70
2023-01-02T15:48:30.516Z,10.60
2023-01-02T15:52:33.577Z,10.60
2023-01-02T15:56:38.563Z,10.50
2023-01-02T16:00:41.618Z,10.50
2023-01-02T16:04:44.470Z,10.50
2023-01-02T16:08:51.608Z,10.50
2023-01-02T16:12:57.893Z,10.50
2023-01-02T16:17:03.665Z,10.50
2023-01-02T16:21:11.759Z,10.50
2023-01-02T16:25:19.626Z,10.40
2023-01-02T16:29:25.377Z,10.40
2023-01-02T16:33:30.397Z,10.40
2023-01-02T16:37:34.440Z,10.40
2023-01-02T16:42:16.097Z,10.40
2023-01-02T16:46:20.545Z,10.40
2023-01-02T16:50:24.716Z,10.30
2023-01-02T16:54:27.598Z,10.30
2023-01-02T16:58:30.466Z,10.30
2023-01-02T17:02:34.884Z,10.20
2023-01-02T17:06:37.860Z,10.20
2023-01-02T17:10:41.293Z,10.20
2023-01-02T17:14:44.242Z,10.20
2023-01-02T17:18:48.423Z,10.20
2023-01-02T17:22:51.259Z,10.10
2023-01-02T17:26:54.378Z,10.10
2023-01-02T17:30:57.237Z,10.10
2023-01-02T17:35:01.414Z,10.10
2023-01-02T17:39:04.242Z,10.10
2023-01-02T17:43:07.399Z,10.10
2023-01-02T17:47:39.279Z,10.10
2023-01-02T17:51:34.538Z,10.10
2023-01-02T17:55:39.820Z,10.10
2023-01-02T17:59:43.904Z,10.10
2023-01-02T18:03:47.314Z,10.10
2023-01-02T18:07:51.500Z,10.00
2023-01-02T18:15:57.482Z,10.00
2023-01-02T18:20:03.074Z,10.10
2023-01-02T18:24:12.448Z,10.10
2023-01-02T18:28:20.859Z,10.10
2023-01-02T18:32:28.017Z,10.00
2023-01-02T18:36:31.687Z,10.00
2023-01-02T18:40:36.880Z,10.00
2023-01-02T18:44:41.742Z,10.00
2023-01-02T18:48:47.601Z,10.00
2023-01-02T18:52:50.442Z,9.90
2023-01-02T18:56:55.323Z,9.90
2023-01-02T19:00:58.229Z,9.90
2023-01-02T19:05:01.529Z,9.90
2023-01-02T19:09:10.627Z,9.90
2023-01-02T19:13:18.369Z,9.90
2023-01-02T19:17:24.017Z,9.80
2023-01-02T19:21:28.412Z,9.80
2023-01-02T19:25:31.342Z,9.80
2023-01-02T19:29:38.385Z,9.80
2023-01-02T19:33:41.925Z,9.80
2023-01-02T19:37:46.289Z,9.80
2023-01-02T19:42:05.925Z,9.80
2023-01-02T19:46:10.139Z,9.70
2023-01-02T19:50:15.218Z,9.70
2023-01-02T19:54:18.056Z,9.70
2023-01-02T19:58:20.909Z,9.60
2023-01-02T20:02:28.415Z,9.60
2023-01-02T20:06:33.958Z,9.60
2023-01-02T20:10:36.837Z,9.60
2023-01-02T20:14:40.331Z,9.50
2023-01-02T20:18:44.521Z,9.50
2023-01-02T20:22:49.299Z,9.50
2023-01-02T20:26:52.135Z,9.50
2023-01-02T20:30:55.014Z,9.40
2023-01-02T20:34:59.820Z,9.40
2023-01-02T20:39:02.677Z,9.30
2023-01-02T20:43:05.742Z,9.20
2023-01-02T20:51:13.064Z,9.10
2023-01-02T20:55:16.109Z,9.00
2023-01-02T20:59:19.063Z,8.90
2023-01-02T21:03:22.046Z,8.80
2023-01-02T21:07:26.499Z,8.80
2023-01-02T21:11:29.322Z,8.70
2023-01-02T21:15:45.973Z,8.60
2023-01-02T21:19:48.925Z,8.60
2023-01-02T21:23:53.214Z,8.50
2023-01-02T21:27:56.157Z,8.50
2023-01-02T21:31:58.974Z,8.40
2023-01-02T21:36:02.791Z,8.40
2023-01-02T21:40:07.557Z,8.30
2023-01-02T21:44:10.561Z,8.30
2023-01-02T21:48:13.761Z,8.30
2023-01-02T21:52:16.978Z,8.20
2023-01-02T21:56:21.132Z,8.20
2023-01-02T22:00:25.311Z,8.10
2023-01-02T22:04:28.397Z,8.10
2023-01-02T22:08:31.386Z,8.10
2023-01-02T22:12:36.409Z,8.00
2023-01-02T22:16:39.525Z,8.00
2023-01-02T22:20:42.542Z,8.00
2023-01-02T22:24:45.645Z,7.90
2023-01-02T22:28:49.867Z,7.90
2023-01-02T22:32:56.558Z,7.80
2023-01-02T22:36:59.723Z,7.80
2023-01-02T22:41:02.679Z,7.80
2023-01-02T22:45:08.071Z,7.70
2023-01-02T22:49:10.908Z,7.70
2023-01-02T22:53:18.270Z,7.70
2023-01-02T22:57:21.098Z,7.60
2023-01-02T23:01:28.583Z,7.60
2023-01-02T23:05:31.484Z,7.60
2023-01-02T23:09:34.921Z,7.60
2023-01-02T23:13:38.249Z,7.50
2023-01-02T23:17:59.962Z,7.50
2023-01-02T23:22:04.247Z,7.40
2023-01-02T23:26:07.410Z,7.40
2023-01-02T23:30:11.054Z,7.30
2023-01-02T23:34:16.625Z,7.30
2023-01-02T23:38:19.666Z,7.20
2023-01-02T23:42:22.807Z,7.20
2023-01-02T23:46:25.636Z,7.20
2023-01-02T23:50:29.800Z,7.10
2023-01-02T23:54:32.579Z,7.00
2023-01-02T23:58:35.400Z,7.00
